Time;durP1;ratioP1;P1;durP2;ratioP2;P2;SDS_P1;SDS_P2;PMS_P1;PMS_P2;Temp;Humidity;BMP_temperature;BMP_pressure;BME280_temperature;BME280_humidity;BME280_pressure;Samples;Min_cycle;Max_cycle;Signal;HPM_P1;HPM_P2
2022/12/05 00:01:24;;;;;;;55.13;34.78;;;;;;;1.06;100.00;101574.88;5106898;28;20074;-72
2022/12/05 00:03:51;;;;;;;51.78;32.95;;;;;;;1.07;100.00;101574.09;5105717;28;20028;-70
2022/12/05 00:06:17;;;;;;;52.85;34.42;;;;;;;1.09;100.00;101577.66;5104421;28;20027;-73
2022/12/05 00:08:43;;;;;;;52.53;35.28;;;;;;;1.07;100.00;101588.00;5103239;28;20034;-70
2022/12/05 00:11:19;;;;;;;54.50;35.70;;;;;;;1.10;100.00;101587.28;5107026;28;20032;-72
2022/12/05 00:13:46;;;;;;;52.42;34.83;;;;;;;1.10;100.00;101584.66;5104729;28;20024;-72
2022/12/05 00:16:14;;;;;;;54.08;35.78;;;;;;;1.09;100.00;101598.50;5104988;28;20398;-70
2022/12/05 00:18:40;;;;;;;53.55;35.15;;;;;;;1.08;100.00;101583.66;5104320;28;20088;-72
2022/12/05 00:21:06;;;;;;;54.42;36.03;;;;;;;1.11;100.00;101589.06;5107149;28;20115;-73
2022/12/05 00:23:31;;;;;;;55.75;36.08;;;;;;;1.09;100.00;101588.97;5101712;28;20440;-72
2022/12/05 00:26:01;;;;;;;53.60;34.90;;;;;;;1.09;100.00;101588.06;5106550;28;20110;-73
2022/12/05 00:28:26;;;;;;;55.03;36.17;;;;;;;1.11;100.00;101584.75;5103829;28;20062;-70
2022/12/05 00:30:52;;;;;;;54.50;35.10;;;;;;;1.10;100.00;101585.56;5105293;28;20471;-72
2022/12/05 00:33:17;;;;;;;55.10;36.25;;;;;;;1.12;100.00;101577.81;5105462;28;20494;-70
2022/12/05 00:35:42;;;;;;;56.70;37.17;;;;;;;1.13;100.00;101577.91;5103853;28;20106;-68
2022/12/05 00:38:08;;;;;;;54.50;35.55;;;;;;;1.14;100.00;101574.50;5105245;28;20032;-68
2022/12/05 00:40:35;;;;;;;54.22;35.60;;;;;;;1.15;100.00;101570.16;5103308;28;20028;-69
2022/12/05 00:43:00;;;;;;;55.85;36.90;;;;;;;1.14;100.00;101573.59;5106163;28;20478;-67
2022/12/05 00:45:26;;;;;;;54.58;36.30;;;;;;;1.15;100.00;101572.78;5102866;28;20031;-68
2022/12/05 00:47:51;;;;;;;55.38;36.35;;;;;;;1.17;100.00;101571.16;5103866;28;20383;-68
2022/12/05 00:50:16;;;;;;;54.08;36.50;;;;;;;1.17;100.00;101563.34;5104150;28;20468;-68
2022/12/05 00:52:42;;;;;;;54.03;36.55;;;;;;;1.18;100.00;101572.94;5102204;28;20081;-70
2022/12/05 00:55:08;;;;;;;56.33;36.63;;;;;;;1.16;100.00;101570.25;5106419;28;20499;-70
2022/12/05 00:57:33;;;;;;;57.90;37.35;;;;;;;1.17;100.00;101566.84;5102639;28;20028;-67
2022/12/05 00:59:58;;;;;;;55.97;37.10;;;;;;;1.19;100.00;101565.22;5105844;28;20100;-68
2022/12/05 01:02:24;;;;;;;54.70;37.03;;;;;;;1.18;100.00;101573.84;5101809;28;20032;-67
2022/12/05 01:04:49;;;;;;;55.35;35.67;;;;;;;1.19;100.00;101569.53;5103253;28;20063;-67
2022/12/05 01:07:14;;;;;;;54.05;37.13;;;;;;;1.19;100.00;101569.53;5103588;28;20028;-67
2022/12/05 01:09:40;;;;;;;56.17;37.53;;;;;;;1.20;100.00;101574.81;5106064;28;20028;-67
2022/12/05 01:12:05;;;;;;;54.90;36.50;;;;;;;1.23;100.00;101583.63;5106125;28;20031;-68
2022/12/05 01:14:31;;;;;;;55.50;37.47;;;;;;;1.21;100.00;101575.72;5102674;28;20032;-68
2022/12/05 01:16:56;;;;;;;56.25;36.47;;;;;;;1.24;100.00;101581.09;5104928;28;20034;-67
2022/12/05 01:19:25;;;;;;;53.35;35.42;;;;;;;1.24;100.00;101588.91;5103751;28;20110;-67
2022/12/05 01:21:50;;;;;;;54.97;36.35;;;;;;;1.24;100.00;101588.91;5104107;28;20497;-67
2022/12/05 01:24:17;;;;;;;54.20;36.15;;;;;;;1.25;100.00;101595.91;5103322;28;20051;-68
2022/12/05 01:26:43;;;;;;;55.10;37.40;;;;;;;1.23;100.00;101592.31;5102767;28;20387;-67
2022/12/05 01:29:10;;;;;;;56.20;36.80;;;;;;;1.24;100.00;101585.41;5105556;28;20553;-67
2022/12/05 01:31:36;;;;;;;55.30;37.58;;;;;;;1.25;100.00;101589.81;5102030;28;20032;-67
2022/12/05 01:34:04;;;;;;;55.10;36.58;;;;;;;1.25;100.00;101597.63;5105283;28;20526;-67
2022/12/05 01:36:30;;;;;;;54.03;36.38;;;;;;;1.27;100.00;101594.28;5102087;28;20123;-67
2022/12/05 01:38:57;;;;;;;54.40;37.03;;;;;;;1.28;100.00;101597.78;5104476;28;20047;-79
2022/12/05 01:41:32;;;;;;;54.47;36.35;;;;;;;1.27;100.00;101599.50;5103302;28;20115;-78
2022/12/05 01:44:07;;;;;;;56.17;37.30;;;;;;;1.29;100.00;101605.69;5104682;28;20031;-78
2022/12/05 01:46:35;;;;;;;54.67;36.33;;;;;;;1.30;100.00;101602.28;5101995;28;20080;-79
2022/12/05 01:49:14;;;;;;;55.25;36.95;;;;;;;1.30;100.00;101604.00;5104943;28;20028;-78
2022/12/05 01:51:44;;;;;;;52.45;35.50;;;;;;;1.31;100.00;101608.38;5098627;28;20020;-78
2022/12/05 01:54:10;;;;;;;54.80;36.25;;;;;;;1.31;100.00;101610.97;5103668;28;20027;-77
2022/12/05 01:56:36;;;;;;;55.42;36.78;;;;;;;1.31;100.00;101613.56;5101720;28;20032;-78
2022/12/05 01:59:04;;;;;;;54.70;36.92;;;;;;;1.31;100.00;101616.19;5104924;28;20032;-74
2022/12/05 02:01:29;;;;;;;52.72;36.90;;;;;;;1.31;100.00;101619.72;5101969;28;20028;-72
2022/12/05 02:03:57;;;;;;;54.70;36.35;;;;;;;1.32;100.00;101617.97;5103996;28;20035;-70
2022/12/05 02:06:24;;;;;;;52.83;35.47;;;;;;;1.32;100.00;101615.38;5102940;28;20028;-70
2022/12/05 02:08:51;;;;;;;53.65;37.00;;;;;;;1.31;100.00;101619.72;5102940;28;20380;-72
2022/12/05 02:11:17;;;;;;;54.25;36.70;;;;;;;1.32;100.00;101616.25;5103858;28;20467;-70
2022/12/05 02:13:53;;;;;;;53.08;35.75;;;;;;;1.34;100.00;101622.47;5101914;28;20039;-71
2022/12/05 02:16:50;;;;;;;55.70;37.28;;;;;;;1.36;100.00;101614.72;5103414;28;20382;-77
2022/12/05 02:20:17;;;;;;;55.78;37.03;;;;;;;1.36;100.00;101620.84;5099763;28;20463;-75
2022/12/05 02:23:09;;;;;;;56.17;37.67;;;;;;;1.35;100.00;101613.81;5019155;28;20040;-70
2022/12/05 02:25:59;;;;;;;53.63;36.85;;;;;;;1.38;100.00;101611.41;5018408;28;20033;-73
2022/12/05 02:29:08;;;;;;;55.17;38.10;;;;;;;1.37;100.00;101611.31;5100089;28;20070;-74
2022/12/05 02:31:39;;;;;;;53.95;36.88;;;;;;;1.35;100.00;101606.00;5097206;28;20103;-69
2022/12/05 02:34:23;;;;;;;54.45;36.63;;;;;;;1.37;100.00;101609.59;5097073;28;20052;-72
2022/12/05 02:36:54;;;;;;;51.67;34.45;;;;;;;1.36;100.00;101607.81;5100261;28;20027;-75
2022/12/05 02:39:25;;;;;;;53.55;37.63;;;;;;;1.36;100.00;101609.53;5103004;28;20023;-73
2022/12/05 02:42:01;;;;;;;55.72;37.83;;;;;;;1.36;100.00;101610.41;5102472;28;20032;-70
2022/12/05 02:44:36;;;;;;;56.30;36.95;;;;;;;1.37;100.00;101601.78;5102095;28;20035;-72
2022/12/05 02:47:05;;;;;;;54.22;36.78;;;;;;;1.37;100.00;101601.78;5107289;28;20030;-70
2022/12/05 02:49:34;;;;;;;59.08;37.67;;;;;;;1.38;100.00;101608.81;5105631;28;20074;-69
2022/12/05 02:52:03;;;;;;;54.53;37.33;;;;;;;1.38;100.00;101608.81;5108086;28;20053;-69
2022/12/05 02:54:35;;;;;;;55.60;36.85;;;;;;;1.39;100.00;101612.28;5105959;28;20032;-79
2022/12/05 02:57:01;;;;;;;54.47;37.28;;;;;;;1.39;100.00;101605.34;5108031;28;20055;-80
2022/12/05 02:59:27;;;;;;;52.72;36.80;;;;;;;1.41;100.00;101607.16;5106036;28;20080;-76
2022/12/05 03:01:52;;;;;;;56.92;38.47;;;;;;;1.39;100.00;101610.56;5107172;28;20028;-74
2022/12/05 03:04:21;;;;;;;56.70;37.65;;;;;;;1.39;100.00;101613.19;5107566;28;20437;-74
2022/12/05 03:06:52;;;;;;;59.03;38.85;;;;;;;1.37;100.00;101616.53;5105995;28;20024;-75
2022/12/05 03:09:34;;;;;;;55.90;37.50;;;;;;;1.41;100.00;101618.47;5107147;28;20024;-70
2022/12/05 03:12:19;;;;;;;57.15;37.55;;;;;;;1.40;100.00;101614.09;5107962;28;20355;-76
2022/12/05 03:15:00;;;;;;;57.35;37.38;;;;;;;1.43;100.00;101621.16;5103013;28;20025;-67
2022/12/05 03:17:33;;;;;;;58.10;38.30;;;;;;;1.45;100.00;101611.72;5105988;28;20378;-67
2022/12/05 03:20:11;;;;;;;57.63;37.78;;;;;;;1.42;100.00;101608.97;5107460;28;20466;-67
2022/12/05 03:22:42;;;;;;;59.20;39.15;;;;;;;1.42;100.00;101614.19;5100699;28;20024;-67
2022/12/05 03:25:11;;;;;;;58.63;37.35;;;;;;;1.44;100.00;101607.31;5100805;28;20028;-67
2022/12/05 03:27:48;;;;;;;58.03;38.55;;;;;;;1.43;100.00;101610.72;5100740;28;20023;-67
2022/12/05 03:30:17;;;;;;;58.10;38.28;;;;;;;1.44;100.00;101610.81;5102136;28;20101;-67
2022/12/05 03:33:00;;;;;;;60.05;38.35;;;;;;;1.45;100.00;101604.78;5107273;28;20031;-67
2022/12/05 03:35:35;;;;;;;58.00;38.75;;;;;;;1.42;100.00;101603.75;5106678;28;20031;-67
2022/12/05 03:38:24;;;;;;;59.35;38.38;;;;;;;1.45;100.00;101603.91;5103529;28;20450;-67
2022/12/05 03:41:05;;;;;;;61.65;39.17;;;;;;;1.44;100.00;101603.00;5103846;28;20039;-67
2022/12/05 03:43:59;;;;;;;61.30;39.53;;;;;;;1.45;100.00;101603.91;5103405;28;20035;-67
2022/12/05 03:46:41;;;;;;;61.15;38.80;;;;;;;1.45;100.00;101614.34;5102250;28;20039;-67
2022/12/05 03:49:10;;;;;;;60.50;39.08;;;;;;;1.46;100.00;101610.94;5100166;28;20335;-68
2022/12/05 03:51:46;;;;;;;60.60;38.15;;;;;;;1.45;100.00;101603.91;5100070;28;20047;-67
2022/12/05 03:54:39;;;;;;;60.55;38.88;;;;;;;1.45;100.00;101604.78;5101221;28;20032;-68
2022/12/05 03:57:17;;;;;;;61.42;37.90;;;;;;;1.46;100.00;101605.72;5099615;28;20027;-67
2022/12/05 03:59:48;;;;;;;56.85;37.28;;;;;;;1.47;100.00;101600.59;5101334;28;20109;-68
2022/12/05 04:02:44;;;;;;;58.30;37.97;;;;;;;1.49;100.00;101606.75;5107007;28;20489;-68
2022/12/05 04:05:17;;;;;;;59.53;37.95;;;;;;;1.48;100.00;101610.16;5100710;28;20047;-67
2022/12/05 04:07:47;;;;;;;58.85;38.00;;;;;;;1.47;100.00;101608.41;5101376;28;20475;-67
2022/12/05 04:10:21;;;;;;;57.78;38.08;;;;;;;1.47;100.00;101612.69;5106587;28;20061;-68
2022/12/05 04:12:50;;;;;;;57.22;37.55;;;;;;;1.46;100.00;101614.41;5104527;28;20103;-67
2022/12/05 04:17:01;;;;;;;58.33;38.35;;;;;;;1.47;100.00;101618.81;5106597;28;20028;-68
2022/12/05 04:18:17;;;;;;;57.10;38.17;;;;;;;1.45;100.00;101617.81;5100857;28;20105;-68
2022/12/05 04:23:28;;;;;;;61.35;38.67;;;;;;;1.47;100.00;101618.81;5106453;28;20055;-68
2022/12/05 04:26:17;;;;;;;57.05;37.63;;;;;;;1.48;100.00;101622.31;5105162;28;20027;-68
2022/12/05 04:28:55;;;;;;;57.15;37.20;;;;;;;1.49;100.00;101621.50;5100469;28;20055;-68
2022/12/05 04:31:25;;;;;;;58.15;37.35;;;;;;;1.48;100.00;101620.59;5105131;28;20039;-67
2022/12/05 04:34:04;;;;;;;57.30;36.22;;;;;;;1.47;100.00;101623.13;5104913;28;20021;-68
2022/12/05 04:36:38;;;;;;;57.97;37.72;;;;;;;1.49;100.00;101631.94;5103949;28;20096;-67
2022/12/05 04:39:11;;;;;;;59.38;38.67;;;;;;;1.50;100.00;101628.50;5106911;28;20351;-68
2022/12/05 04:41:41;;;;;;;59.67;38.25;;;;;;;1.48;100.00;101625.81;5097984;28;20032;-67
2022/12/05 04:44:11;;;;;;;58.08;37.85;;;;;;;1.50;100.00;101623.28;5099195;28;20073;-67
2022/12/05 04:46:40;;;;;;;57.78;37.85;;;;;;;1.53;100.00;101633.88;5099346;28;20526;-67
2022/12/05 04:49:08;;;;;;;56.60;37.28;;;;;;;1.51;100.00;101636.38;5081228;28;20024;-67
2022/12/05 04:51:37;;;;;;;56.58;36.97;;;;;;;1.52;100.00;101632.97;5104941;28;20035;-67
2022/12/05 04:54:18;;;;;;;57.50;37.13;;;;;;;1.55;100.00;101630.53;5103322;27;20059;-66
2022/12/05 04:56:45;;;;;;;57.13;37.50;;;;;;;1.54;100.00;101633.97;5100153;28;20425;-67
2022/12/05 04:59:11;;;;;;;58.47;37.70;;;;;;;1.54;100.00;101628.75;5106275;27;20027;-67
2022/12/05 05:01:43;;;;;;;56.53;37.05;;;;;;;1.54;100.00;101625.25;5102875;28;20043;-67
2022/12/05 05:04:29;;;;;;;57.53;36.80;;;;;;;1.56;100.00;101628.84;5099111;28;20020;-67
2022/12/05 05:06:54;;;;;;;58.13;36.92;;;;;;;1.55;100.00;101614.00;5103064;28;20077;-67
2022/12/05 05:09:20;;;;;;;57.22;36.63;;;;;;;1.59;100.00;101629.00;5103937;28;20035;-67
2022/12/05 05:11:45;;;;;;;58.50;36.88;;;;;;;1.59;100.00;101629.00;5102930;28;20055;-67
2022/12/05 05:14:11;;;;;;;58.15;37.55;;;;;;;1.59;100.00;101617.66;5105811;28;20032;-69
2022/12/05 05:16:39;;;;;;;57.63;37.03;;;;;;;1.60;100.00;101635.09;5102825;28;20078;-67
2022/12/05 05:19:06;;;;;;;60.13;38.28;;;;;;;1.62;100.00;101636.97;5105715;28;20459;-67
2022/12/05 05:21:37;;;;;;;58.40;38.08;;;;;;;1.62;100.00;101638.72;5102694;28;20567;-67
2022/12/05 05:24:04;;;;;;;57.55;36.47;;;;;;;1.62;100.00;101641.31;5105315;28;20035;-69
2022/12/05 05:26:32;;;;;;;58.03;36.83;;;;;;;1.62;100.00;101650.00;5103174;28;20034;-67
2022/12/05 05:28:57;;;;;;;57.80;38.05;;;;;;;1.62;100.00;101638.72;5104254;28;20097;-67
2022/12/05 05:31:23;;;;;;;57.03;36.05;;;;;;;1.61;100.00;101640.41;5102539;28;20036;-68
2022/12/05 05:33:54;;;;;;;56.38;35.65;;;;;;;1.61;100.00;101642.13;5103275;28;20463;-68
2022/12/05 05:36:23;;;;;;;57.97;37.10;;;;;;;1.60;100.00;101641.19;5104591;28;20383;-67
2022/12/05 05:38:52;;;;;;;58.08;36.28;;;;;;;1.62;100.00;101636.09;5102916;28;20086;-67
2022/12/05 05:41:23;;;;;;;56.75;36.30;;;;;;;1.67;100.00;101642.44;5104824;28;20034;-67
2022/12/05 05:43:49;;;;;;;54.58;35.55;;;;;;;1.65;100.00;101637.13;5102814;28;20081;-67
2022/12/05 05:46:17;;;;;;;55.03;35.33;;;;;;;1.65;100.00;101639.75;5103366;28;20028;-67
2022/12/05 05:48:43;;;;;;;52.42;34.60;;;;;;;1.66;100.00;101638.03;5102147;28;20482;-67
2022/12/05 05:51:10;;;;;;;54.83;35.22;;;;;;;1.67;100.00;101638.09;5105231;28;20027;-68
2022/12/05 05:53:36;;;;;;;55.22;34.65;;;;;;;1.67;100.00;101645.94;5097609;28;20028;-67
2022/12/05 05:56:03;;;;;;;54.80;35.03;;;;;;;1.67;100.00;101648.53;5104588;28;20088;-67
2022/12/05 05:58:28;;;;;;;53.10;35.25;;;;;;;1.67;100.00;101643.31;5102655;28;20020;-68
2022/12/05 06:00:54;;;;;;;54.78;35.25;;;;;;;1.67;100.00;101651.13;5102175;28;20111;-67
2022/12/05 06:03:19;;;;;;;53.35;35.00;;;;;;;1.66;100.00;101641.56;5102653;28;20059;-68
2022/12/05 06:05:44;;;;;;;54.85;35.80;;;;;;;1.69;100.00;101643.41;5102067;28;20085;-78
2022/12/05 06:08:09;;;;;;;55.90;35.10;;;;;;;1.67;100.00;101645.03;5105150;28;20084;-78
2022/12/05 06:10:37;;;;;;;54.92;36.58;;;;;;;1.67;100.00;101660.69;5102007;28;20032;-79
2022/12/05 06:13:03;;;;;;;54.15;34.47;;;;;;;1.67;100.00;101653.75;5104439;28;20038;-79
2022/12/05 06:15:28;;;;;;;53.63;33.92;;;;;;;1.66;100.00;101656.28;5101052;28;20390;-79
2022/12/05 06:17:55;;;;;;;56.55;37.00;;;;;;;1.70;100.00;101659.16;5103310;28;20060;-77
2022/12/05 06:20:20;;;;;;;52.95;34.33;;;;;;;1.69;100.00;101656.44;5103364;28;20031;-72
2022/12/05 06:22:46;;;;;;;54.00;34.78;;;;;;;1.70;100.00;101656.53;5101618;28;20475;-70
2022/12/05 06:25:11;;;;;;;54.08;35.08;;;;;;;1.72;100.00;101660.13;5104947;28;20028;-72
2022/12/05 06:27:36;;;;;;;54.63;36.10;;;;;;;1.73;100.00;101656.72;5101214;28;20020;-70
2022/12/05 06:30:02;;;;;;;53.67;34.28;;;;;;;1.76;100.00;101662.88;5103919;28;20082;-69
2022/12/05 06:32:28;;;;;;;54.03;34.22;;;;;;;1.77;100.00;101659.47;5102431;28;20093;-70
2022/12/05 06:34:54;;;;;;;54.40;34.40;;;;;;;1.74;100.00;101661.09;5102810;28;20024;-71
2022/12/05 06:37:19;;;;;;;53.38;34.13;;;;;;;1.76;100.00;101662.88;5099716;28;20035;-65
2022/12/05 06:39:45;;;;;;;53.13;34.13;;;;;;;1.74;100.00;101658.47;5098467;28;20036;-68
2022/12/05 06:42:10;;;;;;;52.47;33.92;;;;;;;1.78;100.00;101661.25;5094832;28;20063;-66
2022/12/05 06:44:36;;;;;;;50.75;33.20;;;;;;;1.78;100.00;101669.06;5100061;28;20031;-68
2022/12/05 06:47:01;;;;;;;51.85;33.35;;;;;;;1.78;100.00;101666.47;5095837;28;20032;-65
2022/12/05 06:49:31;;;;;;;51.00;32.00;;;;;;;1.76;100.00;101661.16;5098260;28;20112;-68
2022/12/05 06:51:57;;;;;;;53.30;32.95;;;;;;;1.78;100.00;101661.25;5096214;28;20020;-65
2022/12/05 06:54:22;;;;;;;50.90;33.13;;;;;;;1.79;100.00;101666.56;5100269;28;20431;-65
2022/12/05 06:56:48;;;;;;;50.90;32.22;;;;;;;1.80;100.00;101664.84;5095425;28;20107;-66
2022/12/05 06:59:13;;;;;;;52.08;33.28;;;;;;;1.81;100.00;101666.66;5095403;28;20106;-65
2022/12/05 07:01:40;;;;;;;48.97;31.85;;;;;;;1.83;100.00;101670.22;5092768;28;20040;-68
2022/12/05 07:04:10;;;;;;;52.60;33.00;;;;;;;1.82;100.00;101678.84;5075037;28;20495;-68
2022/12/05 07:06:35;;;;;;;49.42;32.75;;;;;;;1.83;100.00;101678.03;5098231;28;20107;-69
2022/12/05 07:09:02;;;;;;;49.50;31.95;;;;;;;1.82;100.00;101679.75;5098097;28;20525;-68
2022/12/05 07:11:27;;;;;;;47.97;31.80;;;;;;;1.82;100.00;101678.84;5092043;28;20028;-70
2022/12/05 07:13:53;;;;;;;49.85;32.53;;;;;;;1.86;100.00;101684.28;5100135;28;20054;-68
2022/12/05 07:16:18;;;;;;;46.58;31.05;;;;;;;1.85;100.00;101689.44;5099592;28;20066;-67
2022/12/05 07:18:44;;;;;;;47.97;30.38;;;;;;;1.86;100.00;101686.91;5098130;28;20036;-69
2022/12/05 07:21:13;;;;;;;47.20;30.48;;;;;;;1.86;100.00;101696.44;5097882;28;20036;-68
2022/12/05 07:23:40;;;;;;;46.83;30.35;;;;;;;1.85;100.00;101695.56;5094651;28;20065;-70
2022/12/05 07:26:07;;;;;;;47.45;30.88;;;;;;;1.88;100.00;101705.28;5095710;28;20028;-72
2022/12/05 07:28:33;;;;;;;48.42;31.75;;;;;;;1.88;100.00;101706.16;5100308;28;20099;-71
2022/12/05 07:31:04;;;;;;;45.88;30.15;;;;;;;1.89;100.00;101707.97;5094268;28;20067;-68
2022/12/05 07:33:30;;;;;;;47.15;30.17;;;;;;;1.89;100.00;101713.19;5098683;28;20056;-75
2022/12/05 07:36:22;;;;;;;46.17;30.23;;;;;;;1.92;100.00;101715.03;5099959;28;20055;-67
2022/12/05 07:38:53;;;;;;;45.45;29.38;;;;;;;1.89;100.00;101710.56;5093931;28;20047;-66
2022/12/05 07:41:22;;;;;;;46.55;30.77;;;;;;;1.89;100.00;101707.03;5102264;28;20027;-66
2022/12/05 07:43:49;;;;;;;45.95;30.33;;;;;;;1.89;100.00;101707.03;5098740;28;20030;-67
2022/12/05 07:46:16;;;;;;;46.85;31.13;;;;;;;1.91;100.00;101708.03;5096970;28;20028;-68
2022/12/05 07:48:44;;;;;;;47.88;30.40;;;;;;;1.91;100.00;101715.88;5102265;28;20101;-67
2022/12/05 07:51:10;;;;;;;46.15;30.42;;;;;;;1.92;100.00;101710.72;5095696;28;20036;-65
2022/12/05 07:53:37;;;;;;;44.58;29.30;;;;;;;1.93;100.00;101716.81;5098383;28;20024;-66
2022/12/05 07:56:05;;;;;;;47.42;30.63;;;;;;;1.91;100.00;101708.94;5100027;28;20028;-68
2022/12/05 07:58:32;;;;;;;46.55;30.33;;;;;;;1.96;100.00;101718.72;5099770;28;20127;-68
2022/12/05 08:01:05;;;;;;;47.08;30.60;;;;;;;1.94;100.00;101720.31;5100205;28;20463;-66
2022/12/05 08:03:31;;;;;;;50.72;33.08;;;;;;;1.94;100.00;101726.47;5098834;28;20052;-67
2022/12/05 08:06:01;;;;;;;51.85;34.25;;;;;;;1.94;100.00;101720.31;5101337;28;20075;-66
2022/12/05 08:08:26;;;;;;;51.28;33.35;;;;;;;1.93;100.00;101719.44;5101347;28;20349;-66
2022/12/05 08:10:52;;;;;;;53.28;34.33;;;;;;;1.95;100.00;101723.00;5101843;28;20024;-67
2022/12/05 08:13:17;;;;;;;52.03;34.25;;;;;;;1.93;100.00;101732.47;5098338;28;20081;-68
2022/12/05 08:15:42;;;;;;;50.92;32.75;;;;;;;1.93;100.00;101737.69;5097942;28;20089;-68
2022/12/05 08:18:08;;;;;;;51.28;33.15;;;;;;;1.93;100.00;101735.09;5098056;28;20036;-69
2022/12/05 08:20:33;;;;;;;51.45;33.63;;;;;;;1.96;100.00;101739.56;5099689;28;20394;-67
2022/12/05 08:22:58;;;;;;;51.83;33.80;;;;;;;1.97;100.00;101742.25;5097789;28;20120;-68
2022/12/05 08:25:24;;;;;;;53.10;35.67;;;;;;;1.98;100.00;101743.16;5100780;28;20067;-68
2022/12/05 08:27:49;;;;;;;53.10;34.47;;;;;;;2.02;100.00;101743.38;5100101;28;20036;-69
2022/12/05 08:30:15;;;;;;;50.35;31.15;;;;;;;2.02;100.00;101746.00;5101415;28;20052;-68
2022/12/05 08:32:40;;;;;;;51.08;32.83;;;;;;;2.01;100.00;101746.84;5099012;28;20375;-68
2022/12/05 08:35:06;;;;;;;50.67;32.88;;;;;;;2.03;100.00;101749.53;5100616;28;20061;-68
2022/12/05 08:37:31;;;;;;;49.85;32.15;;;;;;;2.02;100.00;101759.03;5096279;28;20040;-67
2022/12/05 08:39:56;;;;;;;48.85;31.20;;;;;;;2.02;100.00;101761.66;5096149;28;20035;-70
2022/12/05 08:42:22;;;;;;;49.25;31.90;;;;;;;2.03;100.00;101755.63;5096122;28;20115;-70
2022/12/05 08:44:49;;;;;;;48.88;30.60;;;;;;;1.99;100.00;101753.66;5098844;28;20174;-71
2022/12/05 08:47:16;;;;;;;51.47;32.47;;;;;;;2.00;100.00;101758.06;5101953;28;20035;-70
2022/12/05 08:49:41;;;;;;;52.17;31.92;;;;;;;2.00;100.00;101750.25;5098684;28;20096;-70
2022/12/05 08:52:06;;;;;;;51.20;32.00;;;;;;;2.02;100.00;101755.53;5096299;28;20435;-72
2022/12/05 08:54:32;;;;;;;51.30;32.65;;;;;;;2.03;100.00;101752.13;5100224;28;20538;-69
2022/12/05 08:56:58;;;;;;;51.25;33.13;;;;;;;2.05;100.00;101758.31;5099438;28;20433;-70
2022/12/05 08:59:23;;;;;;;51.38;32.47;;;;;;;2.04;100.00;101754.81;5098550;28;20028;-69
2022/12/05 09:01:49;;;;;;;50.25;31.08;;;;;;;2.06;100.00;101758.41;5102145;28;20046;-67
2022/12/05 09:04:15;;;;;;;52.33;32.78;;;;;;;2.06;100.00;101760.13;5098397;28;20028;-67
2022/12/05 09:06:41;;;;;;;52.28;32.55;;;;;;;2.06;100.00;101768.84;5106253;28;20031;-68
2022/12/05 09:09:10;;;;;;;53.33;33.20;;;;;;;2.07;100.00;101768.03;5103064;28;20081;-71
2022/12/05 09:11:40;;;;;;;52.50;33.00;;;;;;;2.11;100.00;101771.69;5105233;28;20026;-70
2022/12/05 09:14:05;;;;;;;52.75;32.95;;;;;;;2.13;100.00;101774.41;5103485;28;20027;-84
2022/12/05 09:16:33;;;;;;;52.50;32.72;;;;;;;2.11;100.00;101776.91;5104692;28;20028;-72
2022/12/05 09:18:59;;;;;;;51.28;32.42;;;;;;;2.17;100.00;101776.34;5098808;28;20517;-67
2022/12/05 09:21:27;;;;;;;51.45;32.33;;;;;;;2.16;100.00;101782.38;5104454;28;20027;-67
2022/12/05 09:23:53;;;;;;;51.78;32.08;;;;;;;2.17;100.00;101778.94;5103493;28;20032;-67
2022/12/05 09:26:22;;;;;;;52.50;32.95;;;;;;;2.18;100.00;101780.75;5105285;28;20026;-70
2022/12/05 09:28:48;;;;;;;51.25;32.50;;;;;;;2.19;100.00;101785.16;5102255;28;20043;-68
2022/12/05 09:31:22;;;;;;;51.53;33.65;;;;;;;2.19;100.00;101795.59;5105925;28;20032;-67
2022/12/05 09:33:49;;;;;;;50.22;31.58;;;;;;;2.21;100.00;101787.03;5097739;28;20031;-68
2022/12/05 09:36:18;;;;;;;50.90;31.30;;;;;;;2.29;100.00;101792.66;5095071;28;20039;-69
2022/12/05 09:38:44;;;;;;;50.10;31.75;;;;;;;2.31;100.00;101793.63;5094861;28;20020;-66
2022/12/05 09:44:55;;;;;;;48.30;31.00;;;;;;;2.34;100.00;101805.94;5092946;28;20115;-66
2022/12/05 09:47:26;;;;;;;49.15;30.60;;;;;;;2.32;100.00;101800.66;5094096;28;20020;-70
2022/12/05 09:50:23;;;;;;;48.63;30.55;;;;;;;2.34;100.00;101805.94;5094381;28;20391;-70
2022/12/05 09:53:04;;;;;;;48.00;30.50;;;;;;;2.34;100.00;101808.56;5094152;28;20038;-71
2022/12/05 09:55:52;;;;;;;46.97;29.80;;;;;;;2.34;100.00;101800.72;5089330;28;20028;-67
2022/12/05 09:58:32;;;;;;;45.03;28.85;;;;;;;2.33;100.00;101805.06;5096756;28;20103;-69
2022/12/05 10:01:02;;;;;;;45.78;29.15;;;;;;;2.29;100.00;101799.56;5090973;28;20038;-68
2022/12/05 10:03:40;;;;;;;45.75;29.05;;;;;;;2.32;100.00;101803.25;5088187;28;20024;-67
2022/12/05 10:06:12;;;;;;;46.25;29.33;;;;;;;2.36;100.00;101810.44;5098381;28;20028;-68
2022/12/05 10:08:48;;;;;;;41.10;25.60;;;;;;;2.36;100.00;101802.59;5099738;28;20035;-67
2022/12/05 10:11:27;;;;;;;40.70;26.00;;;;;;;2.39;100.00;101802.78;5094216;28;20020;-66
2022/12/05 10:14:11;;;;;;;36.72;22.92;;;;;;;2.44;100.00;101809.09;5090939;28;20099;-76
2022/12/05 10:16:48;;;;;;;33.42;21.40;;;;;;;2.42;100.00;101795.09;5093229;28;20021;-69
2022/12/05 10:19:21;;;;;;;32.63;20.33;;;;;;;2.47;100.00;101802.28;5099075;28;20032;-67
2022/12/05 10:21:49;;;;;;;;;;;;;;;2.62;100.00;101797.84;5097721;28;20028;-67
2022/12/05 10:24:21;;;;;;;31.98;20.23;;;;;;;2.58;100.00;101802.00;5101298;28;19916;-69
2022/12/05 10:26:56;;;;;;;31.27;19.00;;;;;;;2.59;100.00;101797.69;5097742;28;20024;-74
2022/12/05 10:29:45;;;;;;;29.63;18.08;;;;;;;2.60;100.00;101795.16;5095695;28;20052;-73
2022/12/05 10:32:35;;;;;;;28.80;17.90;;;;;;;2.63;100.00;101798.75;5083202;28;20036;-78
2022/12/05 10:35:14;;;;;;;28.13;16.98;;;;;;;2.63;100.00;101803.97;5096861;28;20027;-77
2022/12/05 10:37:42;;;;;;;28.40;17.40;;;;;;;2.66;100.00;101805.00;5094924;28;20573;-77
2022/12/05 10:40:12;;;;;;;29.45;17.98;;;;;;;2.64;100.00;101806.66;5094847;28;20111;-76
2022/12/05 10:42:37;;;;;;;28.35;16.90;;;;;;;2.66;100.00;101807.63;5095610;28;20032;-77
2022/12/05 10:45:07;;;;;;;27.80;17.00;;;;;;;2.66;100.00;101807.63;5095151;28;20036;-72
2022/12/05 10:47:34;;;;;;;29.30;17.40;;;;;;;2.66;100.00;101809.34;5099368;28;20020;-81
2022/12/05 10:50:06;;;;;;;28.50;17.63;;;;;;;2.71;100.00;101807.84;5093146;28;20107;-81
2022/12/05 10:52:31;;;;;;;27.63;17.10;;;;;;;2.69;100.00;101810.38;5089192;28;20055;-81
2022/12/05 10:55:03;;;;;;;30.23;18.60;;;;;;;2.70;100.00;101801.75;5095464;28;20024;-74
2022/12/05 10:57:29;;;;;;;27.55;17.25;;;;;;;2.64;100.00;101809.28;5095082;28;20028;-75
2022/12/05 10:59:56;;;;;;;27.40;16.90;;;;;;;2.64;100.00;101808.38;5091545;28;20348;-82
2022/12/05 11:02:26;;;;;;;28.63;18.08;;;;;;;2.64;100.00;101804.06;5097249;28;20565;-68
2022/12/05 11:04:53;;;;;;;29.25;18.33;;;;;;;2.64;100.00;101811.00;5095870;28;20024;-67
2022/12/05 11:07:50;;;;;;;29.17;17.92;;;;;;;2.71;100.00;101800.94;5095965;28;20024;-68
2022/12/05 11:10:34;;;;;;;28.95;18.08;;;;;;;2.79;100.00;101796.09;5060985;28;20556;-68
2022/12/05 11:13:01;;;;;;;29.88;18.45;;;;;;;2.78;100.00;101794.31;5105194;28;20584;-67
2022/12/05 11:15:30;;;;;;;27.73;17.85;;;;;;;2.86;100.00;101797.31;5107415;28;20027;-67
2022/12/05 11:18:16;;;;;;;29.17;17.58;;;;;;;2.93;100.00;101795.09;5105890;28;20102;-67
2022/12/05 11:20:41;;;;;;;28.08;17.98;;;;;;;2.99;100.00;101788.41;5102653;28;20211;-67
2022/12/05 11:23:22;;;;;;;28.33;18.20;;;;;;;3.02;100.00;101793.78;5108201;28;20097;-67
2022/12/05 11:25:48;;;;;;;28.65;18.05;;;;;;;2.98;100.00;101787.47;5098509;28;20016;-67
2022/12/05 11:28:16;;;;;;;28.98;18.45;;;;;;;2.96;100.00;101795.25;5095310;28;20032;-70
2022/12/05 11:31:19;;;;;;;29.02;18.15;;;;;;;3.05;100.00;101799.16;5101650;28;20039;-70